sensor_id;sensor_type;location;lat;lon;timestamp;temperature;humidity
45319;DHT22;31057;48.498;32.260;2023-05-07T00:00:33;6.70;99.90
45319;DHT22;31057;48.498;32.260;2023-05-07T00:02:35;6.70;99.90
45319;DHT22;31057;48.498;32.260;2023-05-07T00:04:39;6.80;99.90
45319;DHT22;31057;48.498;32.260;2023-05-07T00:06:41;6.80;99.90
45319;DHT22;31057;48.498;32.260;2023-05-07T00:08:42;6.70;99.90
45319;DHT22;31057;48.498;32.260;2023-05-07T00:10:44;6.70;99.90
45319;DHT22;31057;48.498;32.260;2023-05-07T00:12:48;6.70;99.90
45319;DHT22;31057;48.498;32.260;2023-05-07T00:14:50;6.60;99.90
45319;DHT22;31057;48.498;32.260;2023-05-07T00:16:51;6.60;99.90
45319;DHT22;31057;48.498;32.260;2023-05-07T00:18:53;6.60;99.90
45319;DHT22;31057;48.498;32.260;2023-05-07T00:20:56;6.60;99.90
45319;DHT22;31057;48.498;32.260;2023-05-07T00:22:58;6.60;99.90
45319;DHT22;31057;48.498;32.260;2023-05-07T00:25:00;6.60;99.90
45319;DHT22;31057;48.498;32.260;2023-05-07T00:27:01;6.60;99.90
45319;DHT22;31057;48.498;32.260;2023-05-07T00:29:03;6.60;99.90
45319;DHT22;31057;48.498;32.260;2023-05-07T00:31:05;6.50;99.90
45319;DHT22;31057;48.498;32.260;2023-05-07T00:33:07;6.50;99.90
45319;DHT22;31057;48.498;32.260;2023-05-07T00:35:09;6.50;99.90
45319;DHT22;31057;48.498;32.260;2023-05-07T00:37:12;6.40;99.90
45319;DHT22;31057;48.498;32.260;2023-05-07T00:39:13;6.40;99.90
45319;DHT22;31057;48.498;32.260;2023-05-07T00:41:15;6.50;99.90
45319;DHT22;31057;48.498;32.260;2023-05-07T00:43:17;6.50;99.90
45319;DHT22;31057;48.498;32.260;2023-05-07T00:45:19;6.50;99.90
45319;DHT22;31057;48.498;32.260;2023-05-07T00:47:21;6.40;99.90
45319;DHT22;31057;48.498;32.260;2023-05-07T00:49:28;6.30;99.90
45319;DHT22;31057;48.498;32.260;2023-05-07T00:51:34;6.30;99.90
45319;DHT22;31057;48.498;32.260;2023-05-07T00:53:36;6.30;99.90
45319;DHT22;31057;48.498;32.260;2023-05-07T00:55:38;6.20;99.90
45319;DHT22;31057;48.498;32.260;2023-05-07T00:57:41;6.20;99.90
45319;DHT22;31057;48.498;32.260;2023-05-07T00:59:43;6.20;99.90
45319;DHT22;31057;48.498;32.260;2023-05-07T01:01:45;6.20;99.90
45319;DHT22;31057;48.498;32.260;2023-05-07T01:03:47;6.20;99.90
45319;DHT22;31057;48.498;32.260;2023-05-07T01:05:49;6.10;99.90
45319;DHT22;31057;48.498;32.260;2023-05-07T01:07:53;6.10;99.90
45319;DHT22;31057;48.498;32.260;2023-05-07T01:09:57;6.20;99.90
45319;DHT22;31057;48.498;32.260;2023-05-07T01:11:59;6.10;99.90
45319;DHT22;31057;48.498;32.260;2023-05-07T01:14:01;6.00;99.90
45319;DHT22;31057;48.498;32.260;2023-05-07T01:16:04;6.00;99.90
45319;DHT22;31057;48.498;32.260;2023-05-07T01:18:07;6.10;99.90
45319;DHT22;31057;48.498;32.260;2023-05-07T01:20:09;6.10;99.90
45319;DHT22;31057;48.498;32.260;2023-05-07T01:22:13;6.00;99.90
45319;DHT22;31057;48.498;32.260;2023-05-07T01:24:18;6.10;99.90
45319;DHT22;31057;48.498;32.260;2023-05-07T01:26:20;6.10;99.90
45319;DHT22;31057;48.498;32.260;2023-05-07T01:28:23;6.00;99.90
45319;DHT22;31057;48.498;32.260;2023-05-07T01:30:26;6.10;99.90
45319;DHT22;31057;48.498;32.260;2023-05-07T01:32:51;6.10;99.90
45319;DHT22;31057;48.498;32.260;2023-05-07T01:34:54;6.10;99.90
45319;DHT22;31057;48.498;32.260;2023-05-07T01:36:57;6.00;99.90
45319;DHT22;31057;48.498;32.260;2023-05-07T01:39:00;6.00;99.90
45319;DHT22;31057;48.498;32.260;2023-05-07T01:41:03;6.00;99.90
45319;DHT22;31057;48.498;32.260;2023-05-07T01:43:06;6.00;99.90
45319;DHT22;31057;48.498;32.260;2023-05-07T01:45:08;6.00;99.90
45319;DHT22;31057;48.498;32.260;2023-05-07T01:47:10;5.90;99.90
45319;DHT22;31057;48.498;32.260;2023-05-07T01:49:13;5.90;99.90
45319;DHT22;31057;48.498;32.260;2023-05-07T01:51:15;5.90;99.90
45319;DHT22;31057;48.498;32.260;2023-05-07T01:53:17;5.80;99.90
45319;DHT22;31057;48.498;32.260;2023-05-07T01:55:19;5.70;99.90
45319;DHT22;31057;48.498;32.260;2023-05-07T01:57:21;5.80;99.90
45319;DHT22;31057;48.498;32.260;2023-05-07T01:59:22;5.70;99.90
45319;DHT22;31057;48.498;32.260;2023-05-07T02:01:24;5.70;99.90
45319;DHT22;31057;48.498;32.260;2023-05-07T02:03:26;5.70;99.90
45319;DHT22;31057;48.498;32.260;2023-05-07T02:05:28;5.70;99.90
45319;DHT22;31057;48.498;32.260;2023-05-07T02:07:30;5.60;99.90
45319;DHT22;31057;48.498;32.260;2023-05-07T02:09:32;5.60;99.90
45319;DHT22;31057;48.498;32.260;2023-05-07T02:11:34;5.60;99.90
45319;DHT22;31057;48.498;32.260;2023-05-07T02:13:36;5.60;99.90
45319;DHT22;31057;48.498;32.260;2023-05-07T02:15:38;5.60;99.90
45319;DHT22;31057;48.498;32.260;2023-05-07T02:18:01;5.50;99.90
45319;DHT22;31057;48.498;32.260;2023-05-07T02:20:04;5.50;99.90
45319;DHT22;31057;48.498;32.260;2023-05-07T02:22:07;5.40;99.90
45319;DHT22;31057;48.498;32.260;2023-05-07T02:24:09;5.40;99.90
45319;DHT22;31057;48.498;32.260;2023-05-07T02:26:10;5.40;99.90
45319;DHT22;31057;48.498;32.260;2023-05-07T02:28:12;5.30;99.90
45319;DHT22;31057;48.498;32.260;2023-05-07T02:30:15;5.40;99.90
45319;DHT22;31057;48.498;32.260;2023-05-07T02:32:16;5.30;99.90
45319;DHT22;31057;48.498;32.260;2023-05-07T02:34:19;5.40;99.90
45319;DHT22;31057;48.498;32.260;2023-05-07T02:36:21;5.50;99.90
45319;DHT22;31057;48.498;32.260;2023-05-07T02:38:23;5.70;99.90
45319;DHT22;31057;48.498;32.260;2023-05-07T02:40:25;5.80;99.90
45319;DHT22;31057;48.498;32.260;2023-05-07T02:42:27;5.90;99.90
45319;DHT22;31057;48.498;32.260;2023-05-07T02:44:29;5.70;99.90
45319;DHT22;31057;48.498;32.260;2023-05-07T02:46:33;5.60;99.90
45319;DHT22;31057;48.498;32.260;2023-05-07T02:48:35;5.70;99.90
45319;DHT22;31057;48.498;32.260;2023-05-07T02:50:37;5.70;99.90
45319;DHT22;31057;48.498;32.260;2023-05-07T02:52:39;5.70;99.90
45319;DHT22;31057;48.498;32.260;2023-05-07T02:54:41;5.60;99.90
45319;DHT22;31057;48.498;32.260;2023-05-07T02:56:42;5.60;99.90
45319;DHT22;31057;48.498;32.260;2023-05-07T02:58:44;5.60;99.90
45319;DHT22;31057;48.498;32.260;2023-05-07T03:00:46;5.60;99.90
45319;DHT22;31057;48.498;32.260;2023-05-07T03:02:49;5.60;99.90
45319;DHT22;31057;48.498;32.260;2023-05-07T03:04:51;5.70;99.90
45319;DHT22;31057;48.498;32.260;2023-05-07T03:06:53;5.70;99.90
45319;DHT22;31057;48.498;32.260;2023-05-07T03:08:55;5.80;99.90
45319;DHT22;31057;48.498;32.260;2023-05-07T03:10:57;5.70;99.90
45319;DHT22;31057;48.498;32.260;2023-05-07T03:13:00;5.80;99.90
45319;DHT22;31057;48.498;32.260;2023-05-07T03:15:03;5.90;99.90
45319;DHT22;31057;48.498;32.260;2023-05-07T03:17:05;5.90;99.90
45319;DHT22;31057;48.498;32.260;2023-05-07T03:19:07;5.90;99.90
45319;DHT22;31057;48.498;32.260;2023-05-07T03:21:08;6.00;99.90
45319;DHT22;31057;48.498;32.260;2023-05-07T03:23:11;6.00;99.90
45319;DHT22;31057;48.498;32.260;2023-05-07T03:25:13;6.10;99.90
45319;DHT22;31057;48.498;32.260;2023-05-07T03:27:15;6.20;99.90
45319;DHT22;31057;48.498;32.260;2023-05-07T03:29:17;6.20;99.90
45319;DHT22;31057;48.498;32.260;2023-05-07T03:31:19;6.30;99.90
45319;DHT22;31057;48.498;32.260;2023-05-07T03:33:21;6.30;99.90
45319;DHT22;31057;48.498;32.260;2023-05-07T03:35:23;6.30;99.90
45319;DHT22;31057;48.498;32.260;2023-05-07T03:37:25;6.30;99.90
45319;DHT22;31057;48.498;32.260;2023-05-07T03:39:27;6.40;99.90
45319;DHT22;31057;48.498;32.260;2023-05-07T03:41:29;6.40;99.90
45319;DHT22;31057;48.498;32.260;2023-05-07T03:43:31;6.40;99.90
45319;DHT22;31057;48.498;32.260;2023-05-07T03:45:33;6.50;99.90
45319;DHT22;31057;48.498;32.260;2023-05-07T03:47:35;6.50;99.90
45319;DHT22;31057;48.498;32.260;2023-05-07T03:49:37;6.50;99.90
45319;DHT22;31057;48.498;32.260;2023-05-07T03:51:39;6.60;99.90
45319;DHT22;31057;48.498;32.260;2023-05-07T03:53:41;6.70;99.90
45319;DHT22;31057;48.498;32.260;2023-05-07T03:55:43;6.80;99.90
45319;DHT22;31057;48.498;32.260;2023-05-07T03:57:44;6.80;99.90
45319;DHT22;31057;48.498;32.260;2023-05-07T03:59:47;6.80;99.90
45319;DHT22;31057;48.498;32.260;2023-05-07T04:01:49;6.80;99.90
45319;DHT22;31057;48.498;32.260;2023-05-07T04:03:50;6.90;99.90
45319;DHT22;31057;48.498;32.260;2023-05-07T04:05:53;7.10;99.90
45319;DHT22;31057;48.498;32.260;2023-05-07T04:07:55;7.20;99.90
45319;DHT22;31057;48.498;32.260;2023-05-07T04:09:57;7.40;99.90
45319;DHT22;31057;48.498;32.260;2023-05-07T04:11:58;7.40;99.90
45319;DHT22;31057;48.498;32.260;2023-05-07T04:14:00;7.40;99.90
45319;DHT22;31057;48.498;32.260;2023-05-07T04:16:03;7.60;99.90
45319;DHT22;31057;48.498;32.260;2023-05-07T04:18:05;7.60;99.90
45319;DHT22;31057;48.498;32.260;2023-05-07T04:20:16;7.60;99.90
45319;DHT22;31057;48.498;32.260;2023-05-07T04:22:18;7.60;99.90
45319;DHT22;31057;48.498;32.260;2023-05-07T04:24:20;7.60;99.90
45319;DHT22;31057;48.498;32.260;2023-05-07T04:26:22;7.70;99.90
45319;DHT22;31057;48.498;32.260;2023-05-07T04:28:24;7.70;99.90
45319;DHT22;31057;48.498;32.260;2023-05-07T04:30:27;7.80;99.90
45319;DHT22;31057;48.498;32.260;2023-05-07T04:32:29;7.80;99.90
45319;DHT22;31057;48.498;32.260;2023-05-07T04:34:31;7.80;99.90
45319;DHT22;31057;48.498;32.260;2023-05-07T04:36:33;7.70;99.90
45319;DHT22;31057;48.498;32.260;2023-05-07T04:38:35;7.70;99.90
45319;DHT22;31057;48.498;32.260;2023-05-07T04:40:37;7.80;99.90
45319;DHT22;31057;48.498;32.260;2023-05-07T04:42:40;7.70;99.90
45319;DHT22;31057;48.498;32.260;2023-05-07T04:44:44;7.70;99.90
45319;DHT22;31057;48.498;32.260;2023-05-07T04:46:46;7.90;99.90
45319;DHT22;31057;48.498;32.260;2023-05-07T04:48:48;7.90;99.90
45319;DHT22;31057;48.498;32.260;2023-05-07T04:50:50;8.00;99.90
45319;DHT22;31057;48.498;32.260;2023-05-07T04:52:52;7.90;99.90
45319;DHT22;31057;48.498;32.260;2023-05-07T04:54:54;8.00;99.90
45319;DHT22;31057;48.498;32.260;2023-05-07T04:56:56;7.90;99.90
45319;DHT22;31057;48.498;32.260;2023-05-07T04:58:58;8.20;99.90
45319;DHT22;31057;48.498;32.260;2023-05-07T05:01:00;8.20;99.90
45319;DHT22;31057;48.498;32.260;2023-05-07T05:03:02;8.20;99.90
45319;DHT22;31057;48.498;32.260;2023-05-07T05:05:05;8.30;99.90
45319;DHT22;31057;48.498;32.260;2023-05-07T05:07:07;8.40;99.90
45319;DHT22;31057;48.498;32.260;2023-05-07T05:09:09;8.40;99.90
45319;DHT22;31057;48.498;32.260;2023-05-07T05:11:11;8.20;99.90
45319;DHT22;31057;48.498;32.260;2023-05-07T05:13:13;8.40;99.90
45319;DHT22;31057;48.498;32.260;2023-05-07T05:15:15;8.30;99.90
45319;DHT22;31057;48.498;32.260;2023-05-07T05:17:17;8.40;99.90
45319;DHT22;31057;48.498;32.260;2023-05-07T05:19:19;8.70;99.90
45319;DHT22;31057;48.498;32.260;2023-05-07T05:21:21;8.90;99.90
45319;DHT22;31057;48.498;32.260;2023-05-07T05:23:23;8.50;99.90
45319;DHT22;31057;48.498;32.260;2023-05-07T05:25:25;8.60;99.90
45319;DHT22;31057;48.498;32.260;2023-05-07T05:27:26;8.80;99.90
45319;DHT22;31057;48.498;32.260;2023-05-07T05:29:28;8.50;99.90
45319;DHT22;31057;48.498;32.260;2023-05-07T05:31:31;8.50;99.90
45319;DHT22;31057;48.498;32.260;2023-05-07T05:33:33;8.80;99.90
45319;DHT22;31057;48.498;32.260;2023-05-07T05:35:35;8.60;99.90
45319;DHT22;31057;48.498;32.260;2023-05-07T05:37:38;8.60;99.90
45319;DHT22;31057;48.498;32.260;2023-05-07T05:39:40;8.80;99.90
45319;DHT22;31057;48.498;32.260;2023-05-07T05:41:43;8.60;99.90
45319;DHT22;31057;48.498;32.260;2023-05-07T05:43:44;8.80;99.90
45319;DHT22;31057;48.498;32.260;2023-05-07T05:45:46;8.80;99.90
45319;DHT22;31057;48.498;32.260;2023-05-07T05:47:48;9.10;99.90
45319;DHT22;31057;48.498;32.260;2023-05-07T05:49:50;9.10;99.90
45319;DHT22;31057;48.498;32.260;2023-05-07T05:51:52;9.10;99.90
45319;DHT22;31057;48.498;32.260;2023-05-07T05:53:54;9.00;99.90
45319;DHT22;31057;48.498;32.260;2023-05-07T05:55:56;9.10;99.90
45319;DHT22;31057;48.498;32.260;2023-05-07T05:58:02;9.00;99.90
45319;DHT22;31057;48.498;32.260;2023-05-07T06:00:05;9.10;99.90
45319;DHT22;31057;48.498;32.260;2023-05-07T06:02:07;9.30;99.90
45319;DHT22;31057;48.498;32.260;2023-05-07T06:04:09;9.40;99.90
45319;DHT22;31057;48.498;32.260;2023-05-07T06:06:11;9.40;99.90
45319;DHT22;31057;48.498;32.260;2023-05-07T06:08:13;9.80;99.90
45319;DHT22;31057;48.498;32.260;2023-05-07T06:10:15;9.80;99.90
45319;DHT22;31057;48.498;32.260;2023-05-07T06:12:17;9.60;99.90
45319;DHT22;31057;48.498;32.260;2023-05-07T06:14:19;9.80;99.90
45319;DHT22;31057;48.498;32.260;2023-05-07T06:16:20;10.20;99.90
45319;DHT22;31057;48.498;32.260;2023-05-07T06:18:22;10.20;99.90
45319;DHT22;31057;48.498;32.260;2023-05-07T06:20:24;10.20;99.90
45319;DHT22;31057;48.498;32.260;2023-05-07T06:22:26;9.70;99.90
45319;DHT22;31057;48.498;32.260;2023-05-07T06:24:28;9.70;99.90
45319;DHT22;31057;48.498;32.260;2023-05-07T06:26:30;9.90;99.90
45319;DHT22;31057;48.498;32.260;2023-05-07T06:28:32;10.20;99.90
45319;DHT22;31057;48.498;32.260;2023-05-07T06:30:37;10.00;99.90
45319;DHT22;31057;48.498;32.260;2023-05-07T06:32:40;10.10;99.90
45319;DHT22;31057;48.498;32.260;2023-05-07T06:34:42;10.60;99.90
45319;DHT22;31057;48.498;32.260;2023-05-07T06:36:44;10.50;99.90
45319;DHT22;31057;48.498;32.260;2023-05-07T06:38:46;10.10;99.90
45319;DHT22;31057;48.498;32.260;2023-05-07T06:40:49;10.40;99.90
45319;DHT22;31057;48.498;32.260;2023-05-07T06:42:51;10.50;99.90
45319;DHT22;31057;48.498;32.260;2023-05-07T06:44:53;11.40;99.90
45319;DHT22;31057;48.498;32.260;2023-05-07T06:46:55;11.50;99.90
45319;DHT22;31057;48.498;32.260;2023-05-07T06:48:57;11.20;99.90
45319;DHT22;31057;48.498;32.260;2023-05-07T06:50:59;11.30;99.90
45319;DHT22;31057;48.498;32.260;2023-05-07T06:53:01;11.00;99.90
45319;DHT22;31057;48.498;32.260;2023-05-07T06:55:03;11.20;99.90
45319;DHT22;31057;48.498;32.260;2023-05-07T06:57:05;11.00;99.90
45319;DHT22;31057;48.498;32.260;2023-05-07T06:59:07;10.80;99.90
45319;DHT22;31057;48.498;32.260;2023-05-07T07:01:09;10.90;99.90
45319;DHT22;31057;48.498;32.260;2023-05-07T07:03:11;10.90;99.90
45319;DHT22;31057;48.498;32.260;2023-05-07T07:05:13;10.70;99.90
45319;DHT22;31057;48.498;32.260;2023-05-07T07:07:15;10.80;99.90
45319;DHT22;31057;48.498;32.260;2023-05-07T07:09:17;10.80;99.90
45319;DHT22;31057;48.498;32.260;2023-05-07T07:11:19;10.50;99.90
45319;DHT22;31057;48.498;32.260;2023-05-07T07:13:22;10.80;99.90
45319;DHT22;31057;48.498;32.260;2023-05-07T07:15:24;10.90;99.90
45319;DHT22;31057;48.498;32.260;2023-05-07T07:17:26;11.30;99.90
45319;DHT22;31057;48.498;32.260;2023-05-07T07:19:28;11.10;99.90
45319;DHT22;31057;48.498;32.260;2023-05-07T07:21:30;11.10;99.90
45319;DHT22;31057;48.498;32.260;2023-05-07T07:23:32;10.90;99.90
45319;DHT22;31057;48.498;32.260;2023-05-07T07:25:34;11.40;99.90
45319;DHT22;31057;48.498;32.260;2023-05-07T07:27:36;11.20;99.90
45319;DHT22;31057;48.498;32.260;2023-05-07T07:29:39;11.10;99.90
45319;DHT22;31057;48.498;32.260;2023-05-07T07:31:41;11.20;99.90
45319;DHT22;31057;48.498;32.260;2023-05-07T07:33:45;10.90;99.90
45319;DHT22;31057;48.498;32.260;2023-05-07T07:35:47;11.20;99.90
45319;DHT22;31057;48.498;32.260;2023-05-07T07:37:49;11.30;99.90
45319;DHT22;31057;48.498;32.260;2023-05-07T07:39:51;11.40;99.90
45319;DHT22;31057;48.498;32.260;2023-05-07T07:41:53;11.60;99.90
45319;DHT22;31057;48.498;32.260;2023-05-07T07:43:55;11.80;99.90
45319;DHT22;31057;48.498;32.260;2023-05-07T07:45:57;12.20;99.90
45319;DHT22;31057;48.498;32.260;2023-05-07T07:47:59;12.20;99.90
45319;DHT22;31057;48.498;32.260;2023-05-07T07:50:01;12.40;99.90
45319;DHT22;31057;48.498;32.260;2023-05-07T07:52:03;12.30;99.90
45319;DHT22;31057;48.498;32.260;2023-05-07T07:54:05;12.50;99.90
45319;DHT22;31057;48.498;32.260;2023-05-07T07:56:07;12.60;99.90
45319;DHT22;31057;48.498;32.260;2023-05-07T07:58:09;12.70;99.90
45319;DHT22;31057;48.498;32.260;2023-05-07T08:00:12;13.30;99.90
45319;DHT22;31057;48.498;32.260;2023-05-07T08:02:14;13.40;99.90
45319;DHT22;31057;48.498;32.260;2023-05-07T08:04:16;13.50;99.90
45319;DHT22;31057;48.498;32.260;2023-05-07T08:06:18;12.40;99.90
45319;DHT22;31057;48.498;32.260;2023-05-07T08:08:20;12.80;99.90
45319;DHT22;31057;48.498;32.260;2023-05-07T08:10:22;12.50;99.90
45319;DHT22;31057;48.498;32.260;2023-05-07T08:12:25;12.30;99.90
45319;DHT22;31057;48.498;32.260;2023-05-07T08:14:27;13.00;99.90
45319;DHT22;31057;48.498;32.260;2023-05-07T08:16:30;13.10;99.90
45319;DHT22;31057;48.498;32.260;2023-05-07T08:18:32;13.00;99.90
45319;DHT22;31057;48.498;32.260;2023-05-07T08:20:34;13.50;99.90
45319;DHT22;31057;48.498;32.260;2023-05-07T08:22:40;13.50;99.90
45319;DHT22;31057;48.498;32.260;2023-05-07T08:24:42;13.60;99.90
45319;DHT22;31057;48.498;32.260;2023-05-07T08:26:44;13.90;99.90
45319;DHT22;31057;48.498;32.260;2023-05-07T08:28:48;13.90;99.90
45319;DHT22;31057;48.498;32.260;2023-05-07T08:30:50;14.10;99.90
45319;DHT22;31057;48.498;32.260;2023-05-07T08:32:52;13.80;99.90
45319;DHT22;31057;48.498;32.260;2023-05-07T08:34:55;14.10;99.90
45319;DHT22;31057;48.498;32.260;2023-05-07T08:36:58;13.60;99.90
45319;DHT22;31057;48.498;32.260;2023-05-07T08:39:01;13.90;99.90
45319;DHT22;31057;48.498;32.260;2023-05-07T08:41:03;13.00;99.90
45319;DHT22;31057;48.498;32.260;2023-05-07T08:43:07;13.70;99.90
45319;DHT22;31057;48.498;32.260;2023-05-07T08:45:09;13.30;99.90
45319;DHT22;31057;48.498;32.260;2023-05-07T08:47:13;13.10;99.90
45319;DHT22;31057;48.498;32.260;2023-05-07T08:49:16;13.40;99.90
45319;DHT22;31057;48.498;32.260;2023-05-07T08:51:20;14.10;99.90
45319;DHT22;31057;48.498;32.260;2023-05-07T08:53:23;14.10;99.90
45319;DHT22;31057;48.498;32.260;2023-05-07T08:55:25;13.70;99.90
45319;DHT22;31057;48.498;32.260;2023-05-07T08:57:27;13.50;99.90
45319;DHT22;31057;48.498;32.260;2023-05-07T08:59:30;13.60;99.90
45319;DHT22;31057;48.498;32.260;2023-05-07T09:01:33;13.90;99.90
45319;DHT22;31057;48.498;32.260;2023-05-07T09:03:39;13.10;99.90
45319;DHT22;31057;48.498;32.260;2023-05-07T09:05:41;12.90;99.90
45319;DHT22;31057;48.498;32.260;2023-05-07T09:07:45;13.00;99.90
45319;DHT22;31057;48.498;32.260;2023-05-07T09:09:48;13.30;99.90
45319;DHT22;31057;48.498;32.260;2023-05-07T09:11:55;13.80;99.90
45319;DHT22;31057;48.498;32.260;2023-05-07T09:13:58;14.00;99.90
45319;DHT22;31057;48.498;32.260;2023-05-07T09:16:12;13.40;99.90
45319;DHT22;31057;48.498;32.260;2023-05-07T09:18:14;13.80;99.90
45319;DHT22;31057;48.498;32.260;2023-05-07T09:20:17;14.10;99.90
45319;DHT22;31057;48.498;32.260;2023-05-07T09:22:19;13.80;99.90
45319;DHT22;31057;48.498;32.260;2023-05-07T09:24:21;13.90;99.90
45319;DHT22;31057;48.498;32.260;2023-05-07T09:26:25;13.40;99.90
45319;DHT22;31057;48.498;32.260;2023-05-07T09:28:27;13.40;99.90
45319;DHT22;31057;48.498;32.260;2023-05-07T09:30:32;13.50;99.90
45319;DHT22;31057;48.498;32.260;2023-05-07T09:32:36;13.30;99.90
45319;DHT22;31057;48.498;32.260;2023-05-07T09:34:40;13.70;99.90
45319;DHT22;31057;48.498;32.260;2023-05-07T09:36:42;13.30;99.90
45319;DHT22;31057;48.498;32.260;2023-05-07T09:38:45;13.20;99.90
45319;DHT22;31057;48.498;32.260;2023-05-07T09:40:48;13.50;99.90
45319;DHT22;31057;48.498;32.260;2023-05-07T09:43:09;13.60;99.90
45319;DHT22;31057;48.498;32.260;2023-05-07T09:45:12;13.70;99.90
45319;DHT22;31057;48.498;32.260;2023-05-07T09:47:19;14.60;99.90
45319;DHT22;31057;48.498;32.260;2023-05-07T09:49:23;14.50;99.90
45319;DHT22;31057;48.498;32.260;2023-05-07T09:51:50;13.90;99.90
45319;DHT22;31057;48.498;32.260;2023-05-07T09:53:53;14.10;99.90
45319;DHT22;31057;48.498;32.260;2023-05-07T09:55:57;14.80;99.90
45319;DHT22;31057;48.498;32.260;2023-05-07T09:57:59;15.20;99.90
45319;DHT22;31057;48.498;32.260;2023-05-07T10:00:04;15.20;99.90
45319;DHT22;31057;48.498;32.260;2023-05-07T10:02:09;15.50;99.90
45319;DHT22;31057;48.498;32.260;2023-05-07T10:04:12;15.60;99.90
45319;DHT22;31057;48.498;32.260;2023-05-07T10:06:15;15.00;99.90
45319;DHT22;31057;48.498;32.260;2023-05-07T10:08:18;14.70;99.90
45319;DHT22;31057;48.498;32.260;2023-05-07T10:10:22;14.60;99.90
45319;DHT22;31057;48.498;32.260;2023-05-07T10:12:26;14.40;99.90
45319;DHT22;31057;48.498;32.260;2023-05-07T10:14:28;14.20;99.90
45319;DHT22;31057;48.498;32.260;2023-05-07T10:16:32;14.60;99.90
45319;DHT22;31057;48.498;32.260;2023-05-07T10:18:34;14.60;99.90
45319;DHT22;31057;48.498;32.260;2023-05-07T10:20:36;15.10;99.90
45319;DHT22;31057;48.498;32.260;2023-05-07T10:22:45;15.30;99.90
45319;DHT22;31057;48.498;32.260;2023-05-07T10:24:49;14.90;99.90
45319;DHT22;31057;48.498;32.260;2023-05-07T10:26:55;15.00;99.90
45319;DHT22;31057;48.498;32.260;2023-05-07T10:29:04;15.20;99.90
45319;DHT22;31057;48.498;32.260;2023-05-07T10:33:48;14.30;99.90
45319;DHT22;31057;48.498;32.260;2023-05-07T10:35:57;15.10;99.90
45319;DHT22;31057;48.498;32.260;2023-05-07T10:38:00;14.40;99.90
45319;DHT22;31057;48.498;32.260;2023-05-07T10:40:02;14.20;99.90
45319;DHT22;31057;48.498;32.260;2023-05-07T10:42:12;14.70;99.90
45319;DHT22;31057;48.498;32.260;2023-05-07T10:44:29;14.60;99.90
45319;DHT22;31057;48.498;32.260;2023-05-07T10:46:31;14.60;99.90
45319;DHT22;31057;48.498;32.260;2023-05-07T10:51:21;14.70;99.90
45319;DHT22;31057;48.498;32.260;2023-05-07T10:53:25;14.00;99.90
45319;DHT22;31057;48.498;32.260;2023-05-07T10:55:28;14.00;99.90
45319;DHT22;31057;48.498;32.260;2023-05-07T10:59:34;14.90;99.90
45319;DHT22;31057;48.498;32.260;2023-05-07T11:01:54;15.50;99.90
45319;DHT22;31057;48.498;32.260;2023-05-07T11:04:13;15.20;99.90
45319;DHT22;31057;48.498;32.260;2023-05-07T11:06:16;14.90;99.90
45319;DHT22;31057;48.498;32.260;2023-05-07T11:08:18;14.80;99.90
45319;DHT22;31057;48.498;32.260;2023-05-07T11:10:20;15.00;99.90
45319;DHT22;31057;48.498;32.260;2023-05-07T11:14:45;14.30;98.40
45319;DHT22;31057;48.498;32.260;2023-05-07T11:16:47;14.10;98.20
45319;DHT22;31057;48.498;32.260;2023-05-07T11:18:54;14.50;99.80
45319;DHT22;31057;48.498;32.260;2023-05-07T11:20:59;14.20;97.80
45319;DHT22;31057;48.498;32.260;2023-05-07T11:23:01;14.40;98.20
45319;DHT22;31057;48.498;32.260;2023-05-07T11:25:03;14.70;98.60
45319;DHT22;31057;48.498;32.260;2023-05-07T11:27:05;14.90;98.90
45319;DHT22;31057;48.498;32.260;2023-05-07T11:29:21;15.00;97.70
45319;DHT22;31057;48.498;32.260;2023-05-07T11:31:25;14.50;98.50
45319;DHT22;31057;48.498;32.260;2023-05-07T11:33:27;15.00;99.90
45319;DHT22;31057;48.498;32.260;2023-05-07T11:35:30;15.40;99.60
45319;DHT22;31057;48.498;32.260;2023-05-07T11:37:32;15.00;98.40
45319;DHT22;31057;48.498;32.260;2023-05-07T11:39:34;15.00;97.00
45319;DHT22;31057;48.498;32.260;2023-05-07T11:41:37;14.60;97.20
45319;DHT22;31057;48.498;32.260;2023-05-07T11:43:56;14.70;97.60
45319;DHT22;31057;48.498;32.260;2023-05-07T11:46:09;14.80;98.00
45319;DHT22;31057;48.498;32.260;2023-05-07T11:48:13;14.80;98.80
45319;DHT22;31057;48.498;32.260;2023-05-07T11:50:15;14.80;98.10
45319;DHT22;31057;48.498;32.260;2023-05-07T11:52:19;14.80;98.00
45319;DHT22;31057;48.498;32.260;2023-05-07T11:54:21;15.20;98.20
45319;DHT22;31057;48.498;32.260;2023-05-07T11:56:23;15.20;96.90
45319;DHT22;31057;48.498;32.260;2023-05-07T11:58:25;15.50;97.60
45319;DHT22;31057;48.498;32.260;2023-05-07T12:00:29;16.00;98.40
45319;DHT22;31057;48.498;32.260;2023-05-07T12:02:31;16.00;97.70
45319;DHT22;31057;48.498;32.260;2023-05-07T12:04:34;15.60;96.10
45319;DHT22;31057;48.498;32.260;2023-05-07T12:06:36;15.70;96.60
45319;DHT22;31057;48.498;32.260;2023-05-07T12:08:41;16.40;96.90
45319;DHT22;31057;48.498;32.260;2023-05-07T12:10:46;16.00;94.00
45319;DHT22;31057;48.498;32.260;2023-05-07T12:12:49;16.10;94.20
45319;DHT22;31057;48.498;32.260;2023-05-07T12:14:51;15.90;93.70
45319;DHT22;31057;48.498;32.260;2023-05-07T12:16:53;15.80;93.10
45319;DHT22;31057;48.498;32.260;2023-05-07T12:18:56;16.00;93.10
45319;DHT22;31057;48.498;32.260;2023-05-07T12:21:00;15.90;93.60
45319;DHT22;31057;48.498;32.260;2023-05-07T12:23:03;15.50;93.60
45319;DHT22;31057;48.498;32.260;2023-05-07T12:25:05;15.40;94.00
45319;DHT22;31057;48.498;32.260;2023-05-07T12:27:07;15.90;95.00
45319;DHT22;31057;48.498;32.260;2023-05-07T12:29:10;15.80;94.10
45319;DHT22;31057;48.498;32.260;2023-05-07T12:31:13;15.70;93.70
45319;DHT22;31057;48.498;32.260;2023-05-07T12:33:24;15.60;93.20
45319;DHT22;31057;48.498;32.260;2023-05-07T12:35:27;15.30;92.90
45319;DHT22;31057;48.498;32.260;2023-05-07T12:37:29;15.00;93.10
45319;DHT22;31057;48.498;32.260;2023-05-07T12:39:33;15.20;93.40
45319;DHT22;31057;48.498;32.260;2023-05-07T12:41:54;15.30;93.00
45319;DHT22;31057;48.498;32.260;2023-05-07T12:43:57;15.60;93.40
45319;DHT22;31057;48.498;32.260;2023-05-07T12:46:07;15.20;91.50
45319;DHT22;31057;48.498;32.260;2023-05-07T12:48:10;15.00;90.80
45319;DHT22;31057;48.498;32.260;2023-05-07T12:50:13;15.50;92.00
45319;DHT22;31057;48.498;32.260;2023-05-07T12:52:15;15.70;92.20
45319;DHT22;31057;48.498;32.260;2023-05-07T12:54:31;15.80;91.40
45319;DHT22;31057;48.498;32.260;2023-05-07T12:56:36;15.80;92.10
45319;DHT22;31057;48.498;32.260;2023-05-07T12:58:38;15.60;92.00
45319;DHT22;31057;48.498;32.260;2023-05-07T13:00:42;15.70;93.20